KDIK/DIK METAR and TAF weather

Enter ICAO airport designator
Station Type Date Time Source
KDIK METAR 2021/09/16 09:56 UTC NOAA

KDIK 160956Z AUTO 02014G21KT 10SM OVC110 16/04 A2970 RMK AO2 SLP039 T01560039


Station Type Date Time Source
KDIK Decoded METAR 2021/09/16 09:56 UTC NOAA

THEODORE ROOSEVELT REGIONAL, ND, United States (KDIK) 46-48N 102-48W 788M
Sep 16, 2021 - 05:56 AM EDT / 2021.09.16 0956 UTC
Wind: from the NNE (020 degrees) at 16 MPH (14 KT) gusting to 24 MPH (21 KT):0
Visibility: 10 mile(s):0
Sky conditions: overcast
Temperature: 60.1 F (15.6 C)
Dew Point: 39.0 F (3.9 C)
Relative Humidity: 45%
Pressure (altimeter): 29.7 in. Hg (1005 hPa)
ob: KDIK 160956Z AUTO 02014G21KT 10SM OVC110 16/04 A2970 RMK AO2 SLP039 T01560039
cycle: 10

Station Type Date Time Source
KDIK TAF 2021/09/16 06:30 UTC NOAA

TAF KDIK 160527Z 1606/1706 08008KT P6SM SCT250
FM161000 VRB06KT P6SM VCSH BKN100
FM161600 34010KT P6SM BKN250
FM161800 31014G22KT P6SM BKN100
FM170100 32010KT P6SM OVC100
FM170400 29007KT P6SM BKN250

Example: see airport list